SCSE/LSC METAR and TAF weather

Enter ICAO airport designator
Station Type Date Time Source
SCSE METAR 2019/12/07 15:00 UTC NOAA

SCSE 071500Z 30007KT 9999 SCT010 OVC013 15/12 Q1018


Station Type Date Time Source
SCSE Decoded METAR 2019/12/07 15:00 UTC NOAA

La Serena, Chile (SCSE) 29-54S 071-12W
Dec 07, 2019 - 10:00 AM EST / 2019.12.07 1500 UTC
Wind: from the WNW (300 degrees) at 8 MPH (7 KT):0
Visibility: greater than 7 mile(s):0
Sky conditions: overcast
Temperature: 59 F (15 C)
Dew Point: 53 F (12 C)
Relative Humidity: 82%
Pressure (altimeter): 30.06 in. Hg (1018 hPa)
ob: SCSE 071500Z 30007KT 9999 SCT010 OVC013 15/12 Q1018
cycle: 15

Station Type Date Time Source
SCSE TAF 2019/12/07 12:03 UTC NOAA

TAF TAF SCSE 071007Z 0712/0812 35005KT 9999 BKN012 TX18/0718Z TN12/0811Z
BECMG 0716/0718 27010KT SCT015 BKN020
BECMG 0719/0721 29013KT FEW020
BECMG 0722/0800 CAVOK
TEMPO 0805/0812 05005KT

Example: see airport list